sensor_id;sensor_type;location;lat;lon;timestamp;P1;durP1;ratioP1;P2;durP2;ratioP2
2934;SDS011;2462;51.456;7.248;2024-02-26T00:00:37;1.70;;;1.47;;
2934;SDS011;2462;51.456;7.248;2024-02-26T00:03:03;1.63;;;1.53;;
2934;SDS011;2462;51.456;7.248;2024-02-26T00:05:29;2.00;;;1.80;;
2934;SDS011;2462;51.456;7.248;2024-02-26T00:07:56;1.77;;;1.27;;
2934;SDS011;2462;51.456;7.248;2024-02-26T00:10:22;2.07;;;1.60;;
2934;SDS011;2462;51.456;7.248;2024-02-26T00:12:49;1.97;;;1.77;;
2934;SDS011;2462;51.456;7.248;2024-02-26T00:15:15;2.07;;;1.67;;
2934;SDS011;2462;51.456;7.248;2024-02-26T00:17:40;2.00;;;1.80;;
2934;SDS011;2462;51.456;7.248;2024-02-26T00:20:06;2.10;;;1.80;;
2934;SDS011;2462;51.456;7.248;2024-02-26T00:22:36;1.63;;;1.30;;
2934;SDS011;2462;51.456;7.248;2024-02-26T00:25:02;1.70;;;1.60;;
2934;SDS011;2462;51.456;7.248;2024-02-26T00:27:28;1.43;;;1.33;;
2934;SDS011;2462;51.456;7.248;2024-02-26T00:29:54;1.63;;;1.53;;
2934;SDS011;2462;51.456;7.248;2024-02-26T00:32:19;2.63;;;1.57;;
2934;SDS011;2462;51.456;7.248;2024-02-26T00:34:45;1.70;;;1.50;;
2934;SDS011;2462;51.456;7.248;2024-02-26T00:37:11;2.30;;;1.70;;
2934;SDS011;2462;51.456;7.248;2024-02-26T00:39:37;2.10;;;1.90;;
2934;SDS011;2462;51.456;7.248;2024-02-26T00:42:04;1.63;;;1.53;;
2934;SDS011;2462;51.456;7.248;2024-02-26T00:44:30;2.70;;;1.60;;
2934;SDS011;2462;51.456;7.248;2024-02-26T00:46:56;1.60;;;1.30;;
2934;SDS011;2462;51.456;7.248;2024-02-26T00:49:22;1.67;;;1.50;;
2934;SDS011;2462;51.456;7.248;2024-02-26T00:51:48;1.70;;;1.20;;
2934;SDS011;2462;51.456;7.248;2024-02-26T00:54:14;1.70;;;1.60;;
2934;SDS011;2462;51.456;7.248;2024-02-26T00:56:40;1.63;;;1.53;;
2934;SDS011;2462;51.456;7.248;2024-02-26T00:59:06;3.73;;;1.60;;
2934;SDS011;2462;51.456;7.248;2024-02-26T01:01:32;1.57;;;1.47;;
2934;SDS011;2462;51.456;7.248;2024-02-26T01:03:58;1.67;;;1.57;;
2934;SDS011;2462;51.456;7.248;2024-02-26T01:06:24;1.90;;;1.53;;
2934;SDS011;2462;51.456;7.248;2024-02-26T01:08:50;2.27;;;1.70;;
2934;SDS011;2462;51.456;7.248;2024-02-26T01:11:15;2.27;;;1.70;;
2934;SDS011;2462;51.456;7.248;2024-02-26T01:13:41;2.33;;;1.80;;
2934;SDS011;2462;51.456;7.248;2024-02-26T01:16:08;1.70;;;1.50;;
2934;SDS011;2462;51.456;7.248;2024-02-26T01:18:36;1.67;;;1.47;;
2934;SDS011;2462;51.456;7.248;2024-02-26T01:21:02;2.90;;;1.83;;
2934;SDS011;2462;51.456;7.248;2024-02-26T01:23:33;2.10;;;1.47;;
2934;SDS011;2462;51.456;7.248;2024-02-26T01:25:59;3.33;;;2.00;;
2934;SDS011;2462;51.456;7.248;2024-02-26T01:28:25;1.70;;;1.50;;
2934;SDS011;2462;51.456;7.248;2024-02-26T01:30:51;1.77;;;1.60;;
2934;SDS011;2462;51.456;7.248;2024-02-26T01:33:17;1.67;;;1.37;;
2934;SDS011;2462;51.456;7.248;2024-02-26T01:35:43;1.97;;;1.50;;
2934;SDS011;2462;51.456;7.248;2024-02-26T01:38:09;2.37;;;1.70;;
2934;SDS011;2462;51.456;7.248;2024-02-26T01:40:34;2.40;;;1.97;;
2934;SDS011;2462;51.456;7.248;2024-02-26T01:43:01;1.30;;;1.20;;
2934;SDS011;2462;51.456;7.248;2024-02-26T01:45:27;1.60;;;1.40;;
2934;SDS011;2462;51.456;7.248;2024-02-26T01:47:53;2.03;;;1.67;;
2934;SDS011;2462;51.456;7.248;2024-02-26T01:50:20;1.50;;;1.40;;
2934;SDS011;2462;51.456;7.248;2024-02-26T01:52:47;1.77;;;1.63;;
2934;SDS011;2462;51.456;7.248;2024-02-26T01:55:13;1.43;;;1.33;;
2934;SDS011;2462;51.456;7.248;2024-02-26T01:57:41;2.27;;;1.90;;
2934;SDS011;2462;51.456;7.248;2024-02-26T02:00:08;1.97;;;1.60;;
2934;SDS011;2462;51.456;7.248;2024-02-26T02:02:35;2.90;;;2.10;;
2934;SDS011;2462;51.456;7.248;2024-02-26T02:05:01;2.00;;;1.70;;
2934;SDS011;2462;51.456;7.248;2024-02-26T02:07:28;1.67;;;1.57;;
2934;SDS011;2462;51.456;7.248;2024-02-26T02:09:54;1.93;;;1.77;;
2934;SDS011;2462;51.456;7.248;2024-02-26T02:12:21;1.80;;;1.70;;
2934;SDS011;2462;51.456;7.248;2024-02-26T02:14:47;2.43;;;1.90;;
2934;SDS011;2462;51.456;7.248;2024-02-26T02:17:13;3.73;;;2.27;;
2934;SDS011;2462;51.456;7.248;2024-02-26T02:19:39;1.50;;;1.40;;
2934;SDS011;2462;51.456;7.248;2024-02-26T02:22:05;1.40;;;1.30;;
2934;SDS011;2462;51.456;7.248;2024-02-26T02:24:31;1.87;;;1.50;;
2934;SDS011;2462;51.456;7.248;2024-02-26T02:26:57;3.73;;;1.70;;
2934;SDS011;2462;51.456;7.248;2024-02-26T02:29:22;3.20;;;1.50;;
2934;SDS011;2462;51.456;7.248;2024-02-26T02:31:49;2.40;;;1.60;;
2934;SDS011;2462;51.456;7.248;2024-02-26T02:34:15;3.97;;;1.80;;
2934;SDS011;2462;51.456;7.248;2024-02-26T02:36:59;1.50;;;1.40;;
2934;SDS011;2462;51.456;7.248;2024-02-26T02:39:25;1.30;;;1.20;;
2934;SDS011;2462;51.456;7.248;2024-02-26T02:41:51;2.00;;;1.60;;
2934;SDS011;2462;51.456;7.248;2024-02-26T02:44:17;1.40;;;1.30;;
2934;SDS011;2462;51.456;7.248;2024-02-26T02:46:43;1.67;;;1.40;;
2934;SDS011;2462;51.456;7.248;2024-02-26T02:49:09;2.20;;;1.50;;
2934;SDS011;2462;51.456;7.248;2024-02-26T02:51:39;2.10;;;1.57;;
2934;SDS011;2462;51.456;7.248;2024-02-26T02:54:05;1.50;;;1.40;;
2934;SDS011;2462;51.456;7.248;2024-02-26T02:56:31;1.67;;;1.57;;
2934;SDS011;2462;51.456;7.248;2024-02-26T02:58:57;2.13;;;1.67;;
2934;SDS011;2462;51.456;7.248;2024-02-26T03:01:22;1.90;;;1.73;;
2934;SDS011;2462;51.456;7.248;2024-02-26T03:03:48;1.70;;;1.60;;
2934;SDS011;2462;51.456;7.248;2024-02-26T03:06:16;1.70;;;1.60;;
2934;SDS011;2462;51.456;7.248;2024-02-26T03:08:42;2.70;;;1.60;;
2934;SDS011;2462;51.456;7.248;2024-02-26T03:11:12;1.30;;;1.20;;
2934;SDS011;2462;51.456;7.248;2024-02-26T03:13:38;2.33;;;1.67;;
2934;SDS011;2462;51.456;7.248;2024-02-26T03:16:04;2.33;;;1.70;;
2934;SDS011;2462;51.456;7.248;2024-02-26T03:18:30;3.50;;;1.33;;
2934;SDS011;2462;51.456;7.248;2024-02-26T03:20:56;1.30;;;1.10;;
2934;SDS011;2462;51.456;7.248;2024-02-26T03:23:24;1.90;;;1.70;;
2934;SDS011;2462;51.456;7.248;2024-02-26T03:25:49;1.80;;;1.70;;
2934;SDS011;2462;51.456;7.248;2024-02-26T03:28:15;2.40;;;1.60;;
2934;SDS011;2462;51.456;7.248;2024-02-26T03:30:41;1.77;;;1.67;;
2934;SDS011;2462;51.456;7.248;2024-02-26T03:33:07;2.27;;;1.60;;
2934;SDS011;2462;51.456;7.248;2024-02-26T03:35:33;2.13;;;1.80;;
2934;SDS011;2462;51.456;7.248;2024-02-26T03:37:59;2.13;;;1.83;;
2934;SDS011;2462;51.456;7.248;2024-02-26T03:40:25;1.70;;;1.60;;
2934;SDS011;2462;51.456;7.248;2024-02-26T03:42:51;1.80;;;1.40;;
2934;SDS011;2462;51.456;7.248;2024-02-26T03:45:18;1.83;;;1.63;;
2934;SDS011;2462;51.456;7.248;2024-02-26T03:47:44;1.50;;;1.40;;
2934;SDS011;2462;51.456;7.248;2024-02-26T03:50:10;2.60;;;1.33;;
2934;SDS011;2462;51.456;7.248;2024-02-26T03:52:36;2.10;;;1.93;;
2934;SDS011;2462;51.456;7.248;2024-02-26T03:55:02;1.70;;;1.60;;
2934;SDS011;2462;51.456;7.248;2024-02-26T03:57:28;1.47;;;1.33;;
2934;SDS011;2462;51.456;7.248;2024-02-26T03:59:54;1.90;;;1.70;;
2934;SDS011;2462;51.456;7.248;2024-02-26T04:02:20;1.40;;;1.30;;
2934;SDS011;2462;51.456;7.248;2024-02-26T04:04:47;1.50;;;1.40;;
2934;SDS011;2462;51.456;7.248;2024-02-26T04:07:13;1.23;;;1.13;;
2934;SDS011;2462;51.456;7.248;2024-02-26T04:09:39;1.53;;;1.43;;
2934;SDS011;2462;51.456;7.248;2024-02-26T04:12:05;1.70;;;1.60;;
2934;SDS011;2462;51.456;7.248;2024-02-26T04:14:31;2.07;;;1.70;;
2934;SDS011;2462;51.456;7.248;2024-02-26T04:16:57;2.70;;;1.93;;
2934;SDS011;2462;51.456;7.248;2024-02-26T04:19:23;1.57;;;1.43;;
2934;SDS011;2462;51.456;7.248;2024-02-26T04:21:49;1.50;;;1.40;;
2934;SDS011;2462;51.456;7.248;2024-02-26T04:24:15;1.40;;;1.30;;
2934;SDS011;2462;51.456;7.248;2024-02-26T04:26:41;2.27;;;1.70;;
2934;SDS011;2462;51.456;7.248;2024-02-26T04:29:07;5.00;;;1.70;;
2934;SDS011;2462;51.456;7.248;2024-02-26T04:31:33;1.30;;;1.20;;
2934;SDS011;2462;51.456;7.248;2024-02-26T04:33:59;1.47;;;1.37;;
2934;SDS011;2462;51.456;7.248;2024-02-26T04:36:24;1.50;;;1.30;;
2934;SDS011;2462;51.456;7.248;2024-02-26T04:38:51;2.77;;;1.43;;
2934;SDS011;2462;51.456;7.248;2024-02-26T04:41:19;2.33;;;1.70;;
2934;SDS011;2462;51.456;7.248;2024-02-26T04:43:45;1.60;;;1.27;;
2934;SDS011;2462;51.456;7.248;2024-02-26T04:46:11;1.80;;;1.43;;
2934;SDS011;2462;51.456;7.248;2024-02-26T04:48:37;1.40;;;1.30;;
2934;SDS011;2462;51.456;7.248;2024-02-26T04:51:08;1.57;;;1.47;;
2934;SDS011;2462;51.456;7.248;2024-02-26T04:53:34;1.73;;;1.53;;
2934;SDS011;2462;51.456;7.248;2024-02-26T04:56:00;1.77;;;1.30;;
2934;SDS011;2462;51.456;7.248;2024-02-26T04:58:26;2.43;;;1.60;;
2934;SDS011;2462;51.456;7.248;2024-02-26T05:00:51;1.73;;;1.50;;
2934;SDS011;2462;51.456;7.248;2024-02-26T05:03:17;1.40;;;1.30;;
2934;SDS011;2462;51.456;7.248;2024-02-26T05:05:43;2.57;;;1.30;;
2934;SDS011;2462;51.456;7.248;2024-02-26T05:08:10;1.50;;;1.40;;
2934;SDS011;2462;51.456;7.248;2024-02-26T05:10:39;2.70;;;1.60;;
2934;SDS011;2462;51.456;7.248;2024-02-26T05:13:06;1.63;;;1.50;;
2934;SDS011;2462;51.456;7.248;2024-02-26T05:15:32;1.20;;;1.10;;
2934;SDS011;2462;51.456;7.248;2024-02-26T05:17:58;1.93;;;1.53;;
2934;SDS011;2462;51.456;7.248;2024-02-26T05:20:24;1.40;;;1.30;;
2934;SDS011;2462;51.456;7.248;2024-02-26T05:22:50;1.70;;;1.60;;
2934;SDS011;2462;51.456;7.248;2024-02-26T05:25:16;1.83;;;1.60;;
2934;SDS011;2462;51.456;7.248;2024-02-26T05:27:42;1.70;;;1.30;;
2934;SDS011;2462;51.456;7.248;2024-02-26T05:30:09;1.60;;;1.50;;
2934;SDS011;2462;51.456;7.248;2024-02-26T05:32:35;2.03;;;1.20;;
2934;SDS011;2462;51.456;7.248;2024-02-26T05:35:01;1.80;;;1.70;;
2934;SDS011;2462;51.456;7.248;2024-02-26T05:37:28;2.00;;;1.83;;
2934;SDS011;2462;51.456;7.248;2024-02-26T05:39:54;1.43;;;1.30;;
2934;SDS011;2462;51.456;7.248;2024-02-26T05:42:20;2.13;;;1.40;;
2934;SDS011;2462;51.456;7.248;2024-02-26T05:44:46;2.13;;;1.33;;
2934;SDS011;2462;51.456;7.248;2024-02-26T05:47:12;1.50;;;1.40;;
2934;SDS011;2462;51.456;7.248;2024-02-26T05:49:38;3.07;;;1.40;;
2934;SDS011;2462;51.456;7.248;2024-02-26T05:52:04;1.53;;;1.30;;
2934;SDS011;2462;51.456;7.248;2024-02-26T05:54:30;2.10;;;1.87;;
2934;SDS011;2462;51.456;7.248;2024-02-26T05:56:57;1.30;;;1.20;;
2934;SDS011;2462;51.456;7.248;2024-02-26T05:59:23;1.53;;;1.40;;
2934;SDS011;2462;51.456;7.248;2024-02-26T06:01:50;1.73;;;1.60;;
2934;SDS011;2462;51.456;7.248;2024-02-26T06:04:16;1.37;;;1.27;;
2934;SDS011;2462;51.456;7.248;2024-02-26T06:06:42;1.50;;;1.40;;
2934;SDS011;2462;51.456;7.248;2024-02-26T06:09:08;1.57;;;1.33;;
2934;SDS011;2462;51.456;7.248;2024-02-26T06:11:36;1.73;;;1.60;;
2934;SDS011;2462;51.456;7.248;2024-02-26T06:14:01;1.50;;;1.40;;
2934;SDS011;2462;51.456;7.248;2024-02-26T06:16:27;1.93;;;1.50;;
2934;SDS011;2462;51.456;7.248;2024-02-26T06:18:54;1.40;;;1.30;;
2934;SDS011;2462;51.456;7.248;2024-02-26T06:21:21;1.63;;;1.53;;
2934;SDS011;2462;51.456;7.248;2024-02-26T06:23:47;1.40;;;1.30;;
2934;SDS011;2462;51.456;7.248;2024-02-26T06:26:15;2.10;;;1.47;;
2934;SDS011;2462;51.456;7.248;2024-02-26T06:28:41;1.63;;;1.53;;
2934;SDS011;2462;51.456;7.248;2024-02-26T06:31:07;1.30;;;1.17;;
2934;SDS011;2462;51.456;7.248;2024-02-26T06:33:33;1.83;;;1.60;;
2934;SDS011;2462;51.456;7.248;2024-02-26T06:35:59;1.80;;;1.70;;
2934;SDS011;2462;51.456;7.248;2024-02-26T06:38:25;1.93;;;1.20;;
2934;SDS011;2462;51.456;7.248;2024-02-26T06:40:50;1.60;;;1.50;;
2934;SDS011;2462;51.456;7.248;2024-02-26T06:43:17;2.10;;;1.70;;
2934;SDS011;2462;51.456;7.248;2024-02-26T06:45:43;2.50;;;1.80;;
2934;SDS011;2462;51.456;7.248;2024-02-26T06:48:10;1.53;;;1.43;;
2934;SDS011;2462;51.456;7.248;2024-02-26T06:50:36;1.73;;;1.60;;
2934;SDS011;2462;51.456;7.248;2024-02-26T06:53:02;2.17;;;1.33;;
2934;SDS011;2462;51.456;7.248;2024-02-26T06:55:28;1.40;;;1.30;;
2934;SDS011;2462;51.456;7.248;2024-02-26T06:57:55;1.60;;;1.50;;
2934;SDS011;2462;51.456;7.248;2024-02-26T07:00:21;1.63;;;1.53;;
2934;SDS011;2462;51.456;7.248;2024-02-26T07:02:47;1.33;;;1.23;;
2934;SDS011;2462;51.456;7.248;2024-02-26T07:05:13;1.27;;;1.03;;
2934;SDS011;2462;51.456;7.248;2024-02-26T07:07:39;2.10;;;1.80;;
2934;SDS011;2462;51.456;7.248;2024-02-26T07:10:05;1.77;;;1.27;;
2934;SDS011;2462;51.456;7.248;2024-02-26T07:12:31;1.40;;;1.30;;
2934;SDS011;2462;51.456;7.248;2024-02-26T07:14:57;1.30;;;1.20;;
2934;SDS011;2462;51.456;7.248;2024-02-26T07:17:23;2.43;;;1.80;;
2934;SDS011;2462;51.456;7.248;2024-02-26T07:19:49;3.30;;;1.47;;
2934;SDS011;2462;51.456;7.248;2024-02-26T07:22:15;3.13;;;1.87;;
2934;SDS011;2462;51.456;7.248;2024-02-26T07:24:41;2.03;;;1.47;;
2934;SDS011;2462;51.456;7.248;2024-02-26T07:27:07;1.70;;;1.47;;
2934;SDS011;2462;51.456;7.248;2024-02-26T07:29:33;1.50;;;1.40;;
2934;SDS011;2462;51.456;7.248;2024-02-26T07:31:59;2.13;;;1.40;;
2934;SDS011;2462;51.456;7.248;2024-02-26T07:34:25;1.73;;;1.30;;
2934;SDS011;2462;51.456;7.248;2024-02-26T07:36:54;2.50;;;1.27;;
2934;SDS011;2462;51.456;7.248;2024-02-26T07:39:20;1.90;;;1.60;;
2934;SDS011;2462;51.456;7.248;2024-02-26T07:41:46;2.20;;;1.57;;
2934;SDS011;2462;51.456;7.248;2024-02-26T07:44:14;1.83;;;1.63;;
2934;SDS011;2462;51.456;7.248;2024-02-26T07:46:40;1.73;;;1.63;;
2934;SDS011;2462;51.456;7.248;2024-02-26T07:49:06;1.77;;;1.40;;
2934;SDS011;2462;51.456;7.248;2024-02-26T07:51:33;2.17;;;1.50;;
2934;SDS011;2462;51.456;7.248;2024-02-26T07:54:00;1.73;;;1.50;;
2934;SDS011;2462;51.456;7.248;2024-02-26T07:56:26;1.63;;;1.20;;
2934;SDS011;2462;51.456;7.248;2024-02-26T07:58:55;1.50;;;1.30;;
2934;SDS011;2462;51.456;7.248;2024-02-26T08:01:21;1.63;;;1.47;;
2934;SDS011;2462;51.456;7.248;2024-02-26T08:03:47;1.33;;;1.23;;
2934;SDS011;2462;51.456;7.248;2024-02-26T08:06:14;2.03;;;1.80;;
2934;SDS011;2462;51.456;7.248;2024-02-26T08:08:40;1.60;;;1.50;;
2934;SDS011;2462;51.456;7.248;2024-02-26T08:11:06;2.13;;;1.93;;
2934;SDS011;2462;51.456;7.248;2024-02-26T08:13:32;2.03;;;1.40;;
2934;SDS011;2462;51.456;7.248;2024-02-26T08:15:58;2.27;;;1.50;;
2934;SDS011;2462;51.456;7.248;2024-02-26T08:18:24;3.53;;;1.43;;
2934;SDS011;2462;51.456;7.248;2024-02-26T08:20:50;2.30;;;1.53;;
2934;SDS011;2462;51.456;7.248;2024-02-26T08:23:16;1.63;;;1.53;;
2934;SDS011;2462;51.456;7.248;2024-02-26T08:25:42;1.47;;;1.37;;
2934;SDS011;2462;51.456;7.248;2024-02-26T08:28:08;1.30;;;1.10;;
2934;SDS011;2462;51.456;7.248;2024-02-26T08:30:39;1.77;;;1.47;;
2934;SDS011;2462;51.456;7.248;2024-02-26T08:33:04;2.50;;;1.77;;
2934;SDS011;2462;51.456;7.248;2024-02-26T08:35:31;2.30;;;2.10;;
2934;SDS011;2462;51.456;7.248;2024-02-26T08:37:58;1.93;;;1.60;;
2934;SDS011;2462;51.456;7.248;2024-02-26T08:40:24;2.10;;;1.70;;
2934;SDS011;2462;51.456;7.248;2024-02-26T08:42:50;2.33;;;1.60;;
2934;SDS011;2462;51.456;7.248;2024-02-26T08:45:16;1.53;;;1.43;;
2934;SDS011;2462;51.456;7.248;2024-02-26T08:47:44;1.47;;;1.37;;
2934;SDS011;2462;51.456;7.248;2024-02-26T08:50:10;1.57;;;1.47;;
2934;SDS011;2462;51.456;7.248;2024-02-26T08:52:37;1.63;;;1.40;;
2934;SDS011;2462;51.456;7.248;2024-02-26T08:55:05;1.60;;;1.50;;
2934;SDS011;2462;51.456;7.248;2024-02-26T08:57:33;2.47;;;2.00;;
2934;SDS011;2462;51.456;7.248;2024-02-26T08:59:59;1.60;;;1.50;;
2934;SDS011;2462;51.456;7.248;2024-02-26T09:02:25;2.13;;;1.83;;
2934;SDS011;2462;51.456;7.248;2024-02-26T09:04:51;1.50;;;1.40;;
2934;SDS011;2462;51.456;7.248;2024-02-26T09:07:20;1.50;;;1.40;;
2934;SDS011;2462;51.456;7.248;2024-02-26T09:09:46;1.63;;;1.53;;
2934;SDS011;2462;51.456;7.248;2024-02-26T09:12:11;1.70;;;1.60;;
2934;SDS011;2462;51.456;7.248;2024-02-26T09:14:37;1.63;;;1.50;;
2934;SDS011;2462;51.456;7.248;2024-02-26T09:17:04;2.53;;;2.13;;
2934;SDS011;2462;51.456;7.248;2024-02-26T09:19:30;1.80;;;1.50;;
2934;SDS011;2462;51.456;7.248;2024-02-26T09:21:58;2.27;;;1.87;;
2934;SDS011;2462;51.456;7.248;2024-02-26T09:24:24;1.93;;;1.60;;
2934;SDS011;2462;51.456;7.248;2024-02-26T09:26:50;3.00;;;1.83;;
2934;SDS011;2462;51.456;7.248;2024-02-26T09:29:16;1.43;;;1.30;;
2934;SDS011;2462;51.456;7.248;2024-02-26T09:31:42;1.87;;;1.43;;
2934;SDS011;2462;51.456;7.248;2024-02-26T09:34:13;1.57;;;1.47;;
2934;SDS011;2462;51.456;7.248;2024-02-26T09:36:39;3.50;;;1.90;;
2934;SDS011;2462;51.456;7.248;2024-02-26T09:39:05;1.77;;;1.63;;
2934;SDS011;2462;51.456;7.248;2024-02-26T09:41:36;1.77;;;1.67;;
2934;SDS011;2462;51.456;7.248;2024-02-26T09:44:02;1.70;;;1.60;;
2934;SDS011;2462;51.456;7.248;2024-02-26T09:46:28;2.50;;;1.53;;
2934;SDS011;2462;51.456;7.248;2024-02-26T09:48:54;1.70;;;1.60;;
2934;SDS011;2462;51.456;7.248;2024-02-26T09:51:20;1.70;;;1.60;;
2934;SDS011;2462;51.456;7.248;2024-02-26T09:53:51;1.97;;;1.83;;
2934;SDS011;2462;51.456;7.248;2024-02-26T09:56:17;1.93;;;1.83;;
2934;SDS011;2462;51.456;7.248;2024-02-26T09:58:43;2.33;;;1.67;;
2934;SDS011;2462;51.456;7.248;2024-02-26T10:01:19;2.90;;;2.03;;
2934;SDS011;2462;51.456;7.248;2024-02-26T10:03:48;3.83;;;2.10;;
2934;SDS011;2462;51.456;7.248;2024-02-26T10:06:17;2.70;;;2.00;;
2934;SDS011;2462;51.456;7.248;2024-02-26T10:08:43;2.17;;;1.97;;
2934;SDS011;2462;51.456;7.248;2024-02-26T10:11:10;3.70;;;2.00;;
2934;SDS011;2462;51.456;7.248;2024-02-26T10:13:35;3.13;;;2.10;;
2934;SDS011;2462;51.456;7.248;2024-02-26T10:16:02;2.03;;;1.80;;
2934;SDS011;2462;51.456;7.248;2024-02-26T10:21:11;2.70;;;2.20;;
2934;SDS011;2462;51.456;7.248;2024-02-26T10:23:38;2.27;;;2.07;;
2934;SDS011;2462;51.456;7.248;2024-02-26T10:26:04;3.20;;;2.10;;
2934;SDS011;2462;51.456;7.248;2024-02-26T10:28:30;3.30;;;2.17;;
2934;SDS011;2462;51.456;7.248;2024-02-26T10:30:56;5.53;;;2.50;;
2934;SDS011;2462;51.456;7.248;2024-02-26T10:33:22;3.03;;;2.67;;
2934;SDS011;2462;51.456;7.248;2024-02-26T10:35:48;4.30;;;2.20;;
2934;SDS011;2462;51.456;7.248;2024-02-26T10:38:15;6.33;;;2.83;;
2934;SDS011;2462;51.456;7.248;2024-02-26T10:40:45;2.73;;;2.53;;
2934;SDS011;2462;51.456;7.248;2024-02-26T10:43:11;3.30;;;2.60;;
2934;SDS011;2462;51.456;7.248;2024-02-26T10:45:38;3.50;;;2.30;;
2934;SDS011;2462;51.456;7.248;2024-02-26T10:48:09;7.53;;;2.60;;
2934;SDS011;2462;51.456;7.248;2024-02-26T10:50:36;3.25;;;2.00;;
2934;SDS011;2462;51.456;7.248;2024-02-26T10:53:02;2.20;;;2.00;;
2934;SDS011;2462;51.456;7.248;2024-02-26T10:55:29;4.23;;;2.30;;
2934;SDS011;2462;51.456;7.248;2024-02-26T10:57:58;3.65;;;2.00;;
2934;SDS011;2462;51.456;7.248;2024-02-26T11:00:24;2.80;;;2.53;;
2934;SDS011;2462;51.456;7.248;2024-02-26T11:02:51;7.10;;;2.33;;
2934;SDS011;2462;51.456;7.248;2024-02-26T11:05:17;2.50;;;1.97;;
2934;SDS011;2462;51.456;7.248;2024-02-26T11:07:43;3.67;;;2.23;;
2934;SDS011;2462;51.456;7.248;2024-02-26T11:10:13;1.87;;;1.50;;
2934;SDS011;2462;51.456;7.248;2024-02-26T11:12:39;2.33;;;2.07;;
2934;SDS011;2462;51.456;7.248;2024-02-26T11:15:05;3.53;;;1.93;;
2934;SDS011;2462;51.456;7.248;2024-02-26T11:17:31;2.80;;;1.77;;
2934;SDS011;2462;51.456;7.248;2024-02-26T11:19:59;3.10;;;2.60;;
2934;SDS011;2462;51.456;7.248;2024-02-26T11:22:27;4.47;;;2.33;;
2934;SDS011;2462;51.456;7.248;2024-02-26T11:24:55;3.63;;;2.80;;
2934;SDS011;2462;51.456;7.248;2024-02-26T11:27:35;4.00;;;2.13;;
2934;SDS011;2462;51.456;7.248;2024-02-26T11:30:03;3.17;;;2.30;;
2934;SDS011;2462;51.456;7.248;2024-02-26T11:32:30;3.50;;;2.53;;
2934;SDS011;2462;51.456;7.248;2024-02-26T11:34:57;3.73;;;2.70;;
2934;SDS011;2462;51.456;7.248;2024-02-26T11:37:25;7.10;;;2.67;;
2934;SDS011;2462;51.456;7.248;2024-02-26T11:39:51;2.90;;;2.37;;
2934;SDS011;2462;51.456;7.248;2024-02-26T11:42:17;2.60;;;2.40;;
2934;SDS011;2462;51.456;7.248;2024-02-26T11:44:49;3.07;;;2.43;;
2934;SDS011;2462;51.456;7.248;2024-02-26T11:47:19;3.70;;;1.90;;
2934;SDS011;2462;51.456;7.248;2024-02-26T11:49:45;2.90;;;2.20;;
2934;SDS011;2462;51.456;7.248;2024-02-26T11:52:16;3.63;;;2.30;;
2934;SDS011;2462;51.456;7.248;2024-02-26T11:57:20;3.67;;;2.20;;
2934;SDS011;2462;51.456;7.248;2024-02-26T11:59:47;3.87;;;3.00;;
2934;SDS011;2462;51.456;7.248;2024-02-26T12:04:59;2.27;;;2.00;;
2934;SDS011;2462;51.456;7.248;2024-02-26T12:07:26;5.00;;;2.57;;
2934;SDS011;2462;51.456;7.248;2024-02-26T12:09:52;2.47;;;1.87;;
2934;SDS011;2462;51.456;7.248;2024-02-26T12:12:18;3.77;;;2.07;;
2934;SDS011;2462;51.456;7.248;2024-02-26T12:14:51;3.17;;;1.83;;
2934;SDS011;2462;51.456;7.248;2024-02-26T12:17:25;4.83;;;2.20;;
2934;SDS011;2462;51.456;7.248;2024-02-26T12:19:52;2.50;;;2.30;;
2934;SDS011;2462;51.456;7.248;2024-02-26T12:22:19;2.63;;;1.97;;
2934;SDS011;2462;51.456;7.248;2024-02-26T12:24:45;4.07;;;2.50;;
2934;SDS011;2462;51.456;7.248;2024-02-26T12:27:11;2.50;;;2.30;;
2934;SDS011;2462;51.456;7.248;2024-02-26T12:29:37;2.70;;;2.20;;
2934;SDS011;2462;51.456;7.248;2024-02-26T12:32:04;2.60;;;2.40;;
2934;SDS011;2462;51.456;7.248;2024-02-26T12:34:30;2.80;;;2.30;;
2934;SDS011;2462;51.456;7.248;2024-02-26T12:36:56;3.23;;;2.13;;
2934;SDS011;2462;51.456;7.248;2024-02-26T12:39:22;3.00;;;2.07;;
2934;SDS011;2462;51.456;7.248;2024-02-26T12:41:48;2.50;;;2.30;;
2934;SDS011;2462;51.456;7.248;2024-02-26T12:44:16;2.43;;;2.23;;
2934;SDS011;2462;51.456;7.248;2024-02-26T12:46:42;2.60;;;2.20;;
2934;SDS011;2462;51.456;7.248;2024-02-26T12:49:14;3.10;;;2.13;;
2934;SDS011;2462;51.456;7.248;2024-02-26T12:51:40;2.93;;;2.10;;
2934;SDS011;2462;51.456;7.248;2024-02-26T12:54:06;2.37;;;2.13;;
2934;SDS011;2462;51.456;7.248;2024-02-26T12:56:33;3.87;;;2.53;;
2934;SDS011;2462;51.456;7.248;2024-02-26T12:58:59;3.43;;;2.50;;
2934;SDS011;2462;51.456;7.248;2024-02-26T13:01:25;4.77;;;2.60;;
2934;SDS011;2462;51.456;7.248;2024-02-26T13:03:53;3.47;;;2.30;;
2934;SDS011;2462;51.456;7.248;2024-02-26T13:06:19;3.37;;;3.07;;
2934;SDS011;2462;51.456;7.248;2024-02-26T13:08:47;4.20;;;3.60;;
2934;SDS011;2462;51.456;7.248;2024-02-26T13:11:13;6.35;;;5.50;;
2934;SDS011;2462;51.456;7.248;2024-02-26T13:13:39;5.50;;;4.70;;
2934;SDS011;2462;51.456;7.248;2024-02-26T13:16:06;4.10;;;3.80;;
2934;SDS011;2462;51.456;7.248;2024-02-26T13:18:33;4.50;;;3.73;;
2934;SDS011;2462;51.456;7.248;2024-02-26T13:21:11;5.00;;;4.27;;
2934;SDS011;2462;51.456;7.248;2024-02-26T13:23:38;5.65;;;4.03;;
2934;SDS011;2462;51.456;7.248;2024-02-26T13:26:04;5.28;;;4.13;;
2934;SDS011;2462;51.456;7.248;2024-02-26T13:28:30;6.00;;;4.97;;
2934;SDS011;2462;51.456;7.248;2024-02-26T13:30:57;5.73;;;4.20;;
2934;SDS011;2462;51.456;7.248;2024-02-26T13:33:24;9.27;;;4.40;;
2934;SDS011;2462;51.456;7.248;2024-02-26T13:35:51;4.90;;;4.20;;
2934;SDS011;2462;51.456;7.248;2024-02-26T13:38:17;5.17;;;4.23;;
2934;SDS011;2462;51.456;7.248;2024-02-26T13:40:43;5.17;;;3.87;;
2934;SDS011;2462;51.456;7.248;2024-02-26T13:43:09;5.77;;;4.43;;
2934;SDS011;2462;51.456;7.248;2024-02-26T13:45:35;5.67;;;4.00;;
2934;SDS011;2462;51.456;7.248;2024-02-26T13:48:03;5.40;;;4.90;;
2934;SDS011;2462;51.456;7.248;2024-02-26T13:50:29;4.57;;;4.17;;
2934;SDS011;2462;51.456;7.248;2024-02-26T13:52:55;5.77;;;4.80;;
2934;SDS011;2462;51.456;7.248;2024-02-26T13:55:22;4.67;;;3.90;;
2934;SDS011;2462;51.456;7.248;2024-02-26T13:57:50;6.13;;;4.00;;
2934;SDS011;2462;51.456;7.248;2024-02-26T14:00:18;5.10;;;3.90;;
2934;SDS011;2462;51.456;7.248;2024-02-26T14:02:46;5.43;;;4.43;;
2934;SDS011;2462;51.456;7.248;2024-02-26T14:05:12;6.20;;;3.83;;
2934;SDS011;2462;51.456;7.248;2024-02-26T14:07:40;4.43;;;3.53;;
2934;SDS011;2462;51.456;7.248;2024-02-26T14:10:06;4.10;;;3.53;;
2934;SDS011;2462;51.456;7.248;2024-02-26T14:12:32;4.73;;;3.40;;
2934;SDS011;2462;51.456;7.248;2024-02-26T14:14:58;4.03;;;3.63;;
2934;SDS011;2462;51.456;7.248;2024-02-26T14:17:25;4.03;;;3.10;;
2934;SDS011;2462;51.456;7.248;2024-02-26T14:19:52;4.70;;;3.63;;
2934;SDS011;2462;51.456;7.248;2024-02-26T14:22:18;3.93;;;3.53;;
2934;SDS011;2462;51.456;7.248;2024-02-26T14:24:44;4.87;;;3.47;;
2934;SDS011;2462;51.456;7.248;2024-02-26T14:27:10;6.60;;;3.67;;
2934;SDS011;2462;51.456;7.248;2024-02-26T14:29:42;3.10;;;2.80;;
2934;SDS011;2462;51.456;7.248;2024-02-26T14:32:08;3.00;;;2.70;;
2934;SDS011;2462;51.456;7.248;2024-02-26T14:34:34;6.20;;;3.00;;
2934;SDS011;2462;51.456;7.248;2024-02-26T14:37:00;3.90;;;2.93;;
2934;SDS011;2462;51.456;7.248;2024-02-26T14:39:26;3.40;;;3.10;;
2934;SDS011;2462;51.456;7.248;2024-02-26T14:41:52;4.67;;;3.60;;
2934;SDS011;2462;51.456;7.248;2024-02-26T14:44:19;3.47;;;2.80;;
2934;SDS011;2462;51.456;7.248;2024-02-26T14:46:45;2.90;;;2.67;;
2934;SDS011;2462;51.456;7.248;2024-02-26T14:49:11;3.63;;;2.93;;
2934;SDS011;2462;51.456;7.248;2024-02-26T14:51:37;2.97;;;2.67;;
2934;SDS011;2462;51.456;7.248;2024-02-26T14:54:03;4.23;;;3.20;;
2934;SDS011;2462;51.456;7.248;2024-02-26T14:56:33;2.80;;;2.60;;
2934;SDS011;2462;51.456;7.248;2024-02-26T14:58:59;2.75;;;2.50;;
2934;SDS011;2462;51.456;7.248;2024-02-26T15:01:26;4.30;;;2.97;;
2934;SDS011;2462;51.456;7.248;2024-02-26T15:03:53;5.47;;;3.63;;
2934;SDS011;2462;51.456;7.248;2024-02-26T15:06:19;2.90;;;2.60;;
2934;SDS011;2462;51.456;7.248;2024-02-26T15:08:45;3.78;;;2.92;;
2934;SDS011;2462;51.456;7.248;2024-02-26T15:11:14;4.20;;;3.80;;
2934;SDS011;2462;51.456;7.248;2024-02-26T15:13:41;3.90;;;3.37;;
2934;SDS011;2462;51.456;7.248;2024-02-26T15:16:06;3.40;;;2.80;;
2934;SDS011;2462;51.456;7.248;2024-02-26T15:18:33;3.43;;;3.13;;